sensor_id;sensor_type;location;lat;lon;timestamp;P1;durP1;ratioP1;P2;durP2;ratioP2
13571;SDS011;6857;53.484;10.216;2022-08-03T00:01:40;4.87;;;3.67;;
13571;SDS011;6857;53.484;10.216;2022-08-03T00:04:06;4.13;;;3.50;;
13571;SDS011;6857;53.484;10.216;2022-08-03T00:06:33;5.37;;;3.67;;
13571;SDS011;6857;53.484;10.216;2022-08-03T00:08:59;3.80;;;3.47;;
13571;SDS011;6857;53.484;10.216;2022-08-03T00:11:24;4.47;;;3.40;;
13571;SDS011;6857;53.484;10.216;2022-08-03T00:13:50;4.00;;;3.60;;
13571;SDS011;6857;53.484;10.216;2022-08-03T00:16:16;7.53;;;4.43;;
13571;SDS011;6857;53.484;10.216;2022-08-03T00:18:42;6.00;;;4.30;;
13571;SDS011;6857;53.484;10.216;2022-08-03T00:21:08;4.37;;;3.93;;
13571;SDS011;6857;53.484;10.216;2022-08-03T00:23:34;5.67;;;3.90;;
13571;SDS011;6857;53.484;10.216;2022-08-03T00:25:59;4.80;;;3.90;;
13571;SDS011;6857;53.484;10.216;2022-08-03T00:28:25;4.33;;;3.80;;
13571;SDS011;6857;53.484;10.216;2022-08-03T00:30:51;5.40;;;4.10;;
13571;SDS011;6857;53.484;10.216;2022-08-03T00:33:17;5.03;;;4.03;;
13571;SDS011;6857;53.484;10.216;2022-08-03T00:35:43;7.07;;;3.90;;
13571;SDS011;6857;53.484;10.216;2022-08-03T00:38:08;4.60;;;3.83;;
13571;SDS011;6857;53.484;10.216;2022-08-03T00:40:34;4.20;;;3.90;;
13571;SDS011;6857;53.484;10.216;2022-08-03T00:43:00;4.33;;;3.93;;
13571;SDS011;6857;53.484;10.216;2022-08-03T00:45:30;5.63;;;3.60;;
13571;SDS011;6857;53.484;10.216;2022-08-03T00:47:57;5.63;;;4.00;;
13571;SDS011;6857;53.484;10.216;2022-08-03T00:50:24;4.07;;;3.50;;
13571;SDS011;6857;53.484;10.216;2022-08-03T00:52:53;6.50;;;4.50;;
13571;SDS011;6857;53.484;10.216;2022-08-03T00:55:20;5.90;;;4.23;;
13571;SDS011;6857;53.484;10.216;2022-08-03T00:57:46;7.07;;;4.13;;
13571;SDS011;6857;53.484;10.216;2022-08-03T01:00:13;4.20;;;3.67;;
13571;SDS011;6857;53.484;10.216;2022-08-03T01:02:43;4.07;;;3.73;;
13571;SDS011;6857;53.484;10.216;2022-08-03T01:05:09;4.40;;;3.97;;
13571;SDS011;6857;53.484;10.216;2022-08-03T01:15:59;6.33;;;4.60;;
13571;SDS011;6857;53.484;10.216;2022-08-03T01:18:38;5.43;;;4.50;;
13571;SDS011;6857;53.484;10.216;2022-08-03T01:21:19;4.63;;;4.00;;
13571;SDS011;6857;53.484;10.216;2022-08-03T01:24:13;5.00;;;4.47;;
13571;SDS011;6857;53.484;10.216;2022-08-03T01:27:08;5.77;;;3.90;;
13571;SDS011;6857;53.484;10.216;2022-08-03T01:32:23;5.43;;;4.20;;
13571;SDS011;6857;53.484;10.216;2022-08-03T01:35:00;4.63;;;4.20;;
13571;SDS011;6857;53.484;10.216;2022-08-03T01:37:43;4.67;;;4.27;;
13571;SDS011;6857;53.484;10.216;2022-08-03T01:40:12;5.30;;;4.30;;
13571;SDS011;6857;53.484;10.216;2022-08-03T01:42:40;5.00;;;4.20;;
13571;SDS011;6857;53.484;10.216;2022-08-03T01:45:07;5.60;;;4.30;;
13571;SDS011;6857;53.484;10.216;2022-08-03T01:47:34;5.67;;;4.17;;
13571;SDS011;6857;53.484;10.216;2022-08-03T01:50:01;5.63;;;4.90;;
13571;SDS011;6857;53.484;10.216;2022-08-03T01:52:28;4.87;;;4.37;;
13571;SDS011;6857;53.484;10.216;2022-08-03T01:54:56;4.70;;;4.30;;
13571;SDS011;6857;53.484;10.216;2022-08-03T01:57:23;4.53;;;4.13;;
13571;SDS011;6857;53.484;10.216;2022-08-03T01:59:51;6.87;;;5.00;;
13571;SDS011;6857;53.484;10.216;2022-08-03T02:02:19;5.60;;;4.60;;
13571;SDS011;6857;53.484;10.216;2022-08-03T02:04:46;7.67;;;4.40;;
13571;SDS011;6857;53.484;10.216;2022-08-03T02:07:13;5.37;;;4.40;;
13571;SDS011;6857;53.484;10.216;2022-08-03T02:09:40;9.37;;;4.20;;
13571;SDS011;6857;53.484;10.216;2022-08-03T02:12:09;5.67;;;4.30;;
13571;SDS011;6857;53.484;10.216;2022-08-03T02:14:36;5.27;;;4.73;;
13571;SDS011;6857;53.484;10.216;2022-08-03T02:17:07;6.77;;;4.70;;
13571;SDS011;6857;53.484;10.216;2022-08-03T02:19:34;4.97;;;4.43;;
13571;SDS011;6857;53.484;10.216;2022-08-03T02:22:01;5.97;;;4.17;;
13571;SDS011;6857;53.484;10.216;2022-08-03T02:24:28;5.30;;;4.80;;
13571;SDS011;6857;53.484;10.216;2022-08-03T02:26:55;7.00;;;4.50;;
13571;SDS011;6857;53.484;10.216;2022-08-03T02:29:23;5.67;;;4.40;;
13571;SDS011;6857;53.484;10.216;2022-08-03T02:31:50;5.07;;;4.57;;
13571;SDS011;6857;53.484;10.216;2022-08-03T02:34:20;6.07;;;4.50;;
13571;SDS011;6857;53.484;10.216;2022-08-03T02:36:50;4.93;;;4.50;;
13571;SDS011;6857;53.484;10.216;2022-08-03T02:39:18;6.10;;;4.60;;
13571;SDS011;6857;53.484;10.216;2022-08-03T02:41:50;5.23;;;4.83;;
13571;SDS011;6857;53.484;10.216;2022-08-03T02:44:20;5.97;;;5.00;;
13571;SDS011;6857;53.484;10.216;2022-08-03T02:46:52;6.50;;;4.87;;
13571;SDS011;6857;53.484;10.216;2022-08-03T02:49:21;5.93;;;4.63;;
13571;SDS011;6857;53.484;10.216;2022-08-03T02:51:48;6.20;;;4.93;;
13571;SDS011;6857;53.484;10.216;2022-08-03T02:54:17;4.90;;;4.50;;
13571;SDS011;6857;53.484;10.216;2022-08-03T02:56:44;6.93;;;5.33;;
13571;SDS011;6857;53.484;10.216;2022-08-03T02:59:11;5.60;;;5.00;;
13571;SDS011;6857;53.484;10.216;2022-08-03T03:01:37;6.23;;;5.07;;
13571;SDS011;6857;53.484;10.216;2022-08-03T03:04:04;6.60;;;5.33;;
13571;SDS011;6857;53.484;10.216;2022-08-03T03:06:30;5.83;;;5.23;;
13571;SDS011;6857;53.484;10.216;2022-08-03T03:08:56;8.80;;;4.80;;
13571;SDS011;6857;53.484;10.216;2022-08-03T03:11:23;6.53;;;5.93;;
13571;SDS011;6857;53.484;10.216;2022-08-03T03:13:50;8.60;;;5.20;;
13571;SDS011;6857;53.484;10.216;2022-08-03T03:16:16;7.27;;;5.00;;
13571;SDS011;6857;53.484;10.216;2022-08-03T03:18:43;5.03;;;4.57;;
13571;SDS011;6857;53.484;10.216;2022-08-03T03:21:10;6.10;;;5.47;;
13571;SDS011;6857;53.484;10.216;2022-08-03T03:23:40;8.30;;;5.20;;
13571;SDS011;6857;53.484;10.216;2022-08-03T03:26:07;5.70;;;5.20;;
13571;SDS011;6857;53.484;10.216;2022-08-03T03:28:33;6.00;;;5.27;;
13571;SDS011;6857;53.484;10.216;2022-08-03T03:31:01;5.40;;;4.70;;
13571;SDS011;6857;53.484;10.216;2022-08-03T03:33:28;6.23;;;5.20;;
13571;SDS011;6857;53.484;10.216;2022-08-03T03:35:54;5.97;;;5.37;;
13571;SDS011;6857;53.484;10.216;2022-08-03T03:38:19;6.13;;;5.23;;
13571;SDS011;6857;53.484;10.216;2022-08-03T03:40:45;5.37;;;4.87;;
13571;SDS011;6857;53.484;10.216;2022-08-03T03:43:11;8.10;;;5.80;;
13571;SDS011;6857;53.484;10.216;2022-08-03T03:45:39;5.53;;;4.97;;
13571;SDS011;6857;53.484;10.216;2022-08-03T03:48:06;5.43;;;4.93;;
13571;SDS011;6857;53.484;10.216;2022-08-03T03:50:33;5.70;;;5.17;;
13571;SDS011;6857;53.484;10.216;2022-08-03T03:53:03;7.90;;;5.30;;
13571;SDS011;6857;53.484;10.216;2022-08-03T03:55:28;5.97;;;5.37;;
13571;SDS011;6857;53.484;10.216;2022-08-03T03:57:55;5.83;;;5.23;;
13571;SDS011;6857;53.484;10.216;2022-08-03T04:00:21;6.00;;;5.27;;
13571;SDS011;6857;53.484;10.216;2022-08-03T04:02:47;5.50;;;5.00;;
13571;SDS011;6857;53.484;10.216;2022-08-03T04:05:13;6.43;;;5.73;;
13571;SDS011;6857;53.484;10.216;2022-08-03T04:07:59;6.77;;;6.17;;
13571;SDS011;6857;53.484;10.216;2022-08-03T04:10:51;6.20;;;5.60;;
13571;SDS011;6857;53.484;10.216;2022-08-03T04:13:37;8.57;;;5.77;;
13571;SDS011;6857;53.484;10.216;2022-08-03T04:16:06;6.43;;;5.77;;
13571;SDS011;6857;53.484;10.216;2022-08-03T04:18:36;5.87;;;5.27;;
13571;SDS011;6857;53.484;10.216;2022-08-03T04:21:05;6.37;;;5.77;;
13571;SDS011;6857;53.484;10.216;2022-08-03T04:23:34;8.93;;;5.40;;
13571;SDS011;6857;53.484;10.216;2022-08-03T04:26:04;7.47;;;5.40;;
13571;SDS011;6857;53.484;10.216;2022-08-03T04:28:33;6.43;;;5.83;;
13571;SDS011;6857;53.484;10.216;2022-08-03T04:31:01;8.07;;;5.93;;
13571;SDS011;6857;53.484;10.216;2022-08-03T04:33:28;6.07;;;5.53;;
13571;SDS011;6857;53.484;10.216;2022-08-03T04:35:57;6.50;;;5.67;;
13571;SDS011;6857;53.484;10.216;2022-08-03T04:38:24;6.23;;;5.40;;
13571;SDS011;6857;53.484;10.216;2022-08-03T04:40:51;7.93;;;5.30;;
13571;SDS011;6857;53.484;10.216;2022-08-03T04:43:18;7.30;;;5.50;;
13571;SDS011;6857;53.484;10.216;2022-08-03T04:45:46;8.27;;;5.73;;
13571;SDS011;6857;53.484;10.216;2022-08-03T04:48:13;9.20;;;5.67;;
13571;SDS011;6857;53.484;10.216;2022-08-03T04:50:40;6.50;;;5.70;;
13571;SDS011;6857;53.484;10.216;2022-08-03T04:53:06;6.77;;;5.40;;
13571;SDS011;6857;53.484;10.216;2022-08-03T04:55:32;7.53;;;6.83;;
13571;SDS011;6857;53.484;10.216;2022-08-03T04:57:58;5.70;;;5.20;;
13571;SDS011;6857;53.484;10.216;2022-08-03T05:00:25;6.17;;;5.63;;
13571;SDS011;6857;53.484;10.216;2022-08-03T05:02:51;8.27;;;5.50;;
13571;SDS011;6857;53.484;10.216;2022-08-03T05:05:18;6.57;;;5.63;;
13571;SDS011;6857;53.484;10.216;2022-08-03T05:07:43;6.83;;;6.13;;
13571;SDS011;6857;53.484;10.216;2022-08-03T05:10:10;11.23;;;5.93;;
13571;SDS011;6857;53.484;10.216;2022-08-03T05:12:36;6.27;;;5.67;;
13571;SDS011;6857;53.484;10.216;2022-08-03T05:15:02;6.83;;;5.80;;
13571;SDS011;6857;53.484;10.216;2022-08-03T05:17:29;8.80;;;6.17;;
13571;SDS011;6857;53.484;10.216;2022-08-03T05:19:55;8.40;;;5.80;;
13571;SDS011;6857;53.484;10.216;2022-08-03T05:22:21;7.53;;;5.80;;
13571;SDS011;6857;53.484;10.216;2022-08-03T05:24:47;8.40;;;5.73;;
13571;SDS011;6857;53.484;10.216;2022-08-03T05:27:13;6.33;;;5.73;;
13571;SDS011;6857;53.484;10.216;2022-08-03T05:29:43;6.40;;;5.80;;
13571;SDS011;6857;53.484;10.216;2022-08-03T05:32:09;6.90;;;6.23;;
13571;SDS011;6857;53.484;10.216;2022-08-03T05:34:35;5.80;;;5.20;;
13571;SDS011;6857;53.484;10.216;2022-08-03T05:37:00;6.43;;;5.17;;
13571;SDS011;6857;53.484;10.216;2022-08-03T05:39:26;6.07;;;5.40;;
13571;SDS011;6857;53.484;10.216;2022-08-03T05:41:51;9.00;;;5.67;;
13571;SDS011;6857;53.484;10.216;2022-08-03T05:44:17;6.00;;;5.50;;
13571;SDS011;6857;53.484;10.216;2022-08-03T05:46:43;7.07;;;5.23;;
13571;SDS011;6857;53.484;10.216;2022-08-03T05:49:08;5.70;;;5.20;;
13571;SDS011;6857;53.484;10.216;2022-08-03T05:51:34;5.50;;;5.00;;
13571;SDS011;6857;53.484;10.216;2022-08-03T05:54:01;6.60;;;5.43;;
13571;SDS011;6857;53.484;10.216;2022-08-03T05:56:26;5.97;;;5.33;;
13571;SDS011;6857;53.484;10.216;2022-08-03T05:58:52;6.60;;;5.23;;
13571;SDS011;6857;53.484;10.216;2022-08-03T06:01:18;9.13;;;6.07;;
13571;SDS011;6857;53.484;10.216;2022-08-03T06:03:45;7.77;;;5.17;;
13571;SDS011;6857;53.484;10.216;2022-08-03T06:06:12;5.80;;;5.30;;
13571;SDS011;6857;53.484;10.216;2022-08-03T06:08:38;5.73;;;5.20;;
13571;SDS011;6857;53.484;10.216;2022-08-03T06:11:05;8.67;;;5.27;;
13571;SDS011;6857;53.484;10.216;2022-08-03T06:13:30;7.87;;;5.30;;
13571;SDS011;6857;53.484;10.216;2022-08-03T06:15:56;7.43;;;5.30;;
13571;SDS011;6857;53.484;10.216;2022-08-03T06:18:21;7.97;;;5.70;;
13571;SDS011;6857;53.484;10.216;2022-08-03T06:20:48;5.30;;;4.83;;
13571;SDS011;6857;53.484;10.216;2022-08-03T06:23:15;6.47;;;4.67;;
13571;SDS011;6857;53.484;10.216;2022-08-03T06:25:40;7.57;;;5.30;;
13571;SDS011;6857;53.484;10.216;2022-08-03T06:28:06;6.53;;;4.90;;
13571;SDS011;6857;53.484;10.216;2022-08-03T06:30:32;8.67;;;5.57;;
13571;SDS011;6857;53.484;10.216;2022-08-03T06:32:58;11.77;;;5.20;;
13571;SDS011;6857;53.484;10.216;2022-08-03T06:35:23;10.13;;;5.13;;
13571;SDS011;6857;53.484;10.216;2022-08-03T06:37:49;7.17;;;4.90;;
13571;SDS011;6857;53.484;10.216;2022-08-03T06:40:17;5.53;;;4.77;;
13571;SDS011;6857;53.484;10.216;2022-08-03T06:42:44;5.37;;;4.83;;
13571;SDS011;6857;53.484;10.216;2022-08-03T06:45:10;9.63;;;8.63;;
13571;SDS011;6857;53.484;10.216;2022-08-03T06:47:37;7.00;;;6.30;;
13571;SDS011;6857;53.484;10.216;2022-08-03T06:50:04;7.23;;;5.70;;
13571;SDS011;6857;53.484;10.216;2022-08-03T06:52:30;6.35;;;4.25;;
13571;SDS011;6857;53.484;10.216;2022-08-03T06:54:57;7.82;;;5.05;;
13571;SDS011;6857;53.484;10.216;2022-08-03T06:57:23;6.80;;;4.85;;
13571;SDS011;6857;53.484;10.216;2022-08-03T06:59:48;4.65;;;4.10;;
13571;SDS011;6857;53.484;10.216;2022-08-03T07:02:14;6.35;;;4.40;;
13571;SDS011;6857;53.484;10.216;2022-08-03T07:04:40;5.28;;;4.78;;
13571;SDS011;6857;53.484;10.216;2022-08-03T07:07:05;7.00;;;4.47;;
13571;SDS011;6857;53.484;10.216;2022-08-03T07:09:31;9.23;;;5.25;;
13571;SDS011;6857;53.484;10.216;2022-08-03T07:11:56;5.63;;;4.18;;
13571;SDS011;6857;53.484;10.216;2022-08-03T07:14:22;6.20;;;5.10;;
13571;SDS011;6857;53.484;10.216;2022-08-03T07:16:48;4.88;;;4.47;;
13571;SDS011;6857;53.484;10.216;2022-08-03T07:19:14;5.78;;;3.80;;
13571;SDS011;6857;53.484;10.216;2022-08-03T07:21:39;7.78;;;5.20;;
13571;SDS011;6857;53.484;10.216;2022-08-03T07:24:05;6.05;;;4.00;;
13571;SDS011;6857;53.484;10.216;2022-08-03T07:26:31;8.20;;;5.47;;
13571;SDS011;6857;53.484;10.216;2022-08-03T07:28:56;5.00;;;4.20;;
13571;SDS011;6857;53.484;10.216;2022-08-03T07:31:22;5.80;;;3.90;;
13571;SDS011;6857;53.484;10.216;2022-08-03T07:33:47;5.50;;;4.75;;
13571;SDS011;6857;53.484;10.216;2022-08-03T07:36:13;6.70;;;5.43;;
13571;SDS011;6857;53.484;10.216;2022-08-03T07:38:38;6.68;;;4.45;;
13571;SDS011;6857;53.484;10.216;2022-08-03T07:41:04;4.20;;;3.88;;
13571;SDS011;6857;53.484;10.216;2022-08-03T07:43:29;7.10;;;3.40;;
13571;SDS011;6857;53.484;10.216;2022-08-03T07:45:55;3.70;;;3.00;;
13571;SDS011;6857;53.484;10.216;2022-08-03T07:48:21;3.20;;;2.90;;
13571;SDS011;6857;53.484;10.216;2022-08-03T07:50:46;3.47;;;3.10;;
13571;SDS011;6857;53.484;10.216;2022-08-03T07:53:12;3.10;;;2.80;;
13571;SDS011;6857;53.484;10.216;2022-08-03T07:55:38;4.95;;;2.60;;
13571;SDS011;6857;53.484;10.216;2022-08-03T07:58:05;3.05;;;2.58;;
13571;SDS011;6857;53.484;10.216;2022-08-03T08:00:33;3.72;;;3.00;;
13571;SDS011;6857;53.484;10.216;2022-08-03T08:02:59;5.25;;;2.90;;
13571;SDS011;6857;53.484;10.216;2022-08-03T08:05:25;5.03;;;2.45;;
13571;SDS011;6857;53.484;10.216;2022-08-03T08:07:51;4.13;;;2.30;;
13571;SDS011;6857;53.484;10.216;2022-08-03T08:10:17;5.10;;;2.50;;
13571;SDS011;6857;53.484;10.216;2022-08-03T08:12:44;5.93;;;2.33;;
13571;SDS011;6857;53.484;10.216;2022-08-03T08:15:09;2.55;;;2.30;;
13571;SDS011;6857;53.484;10.216;2022-08-03T08:17:42;4.20;;;2.05;;
13571;SDS011;6857;53.484;10.216;2022-08-03T08:20:09;6.05;;;2.00;;
13571;SDS011;6857;53.484;10.216;2022-08-03T08:22:36;3.50;;;2.22;;
13571;SDS011;6857;53.484;10.216;2022-08-03T08:25:02;3.88;;;2.00;;
13571;SDS011;6857;53.484;10.216;2022-08-03T08:27:28;4.28;;;1.98;;
13571;SDS011;6857;53.484;10.216;2022-08-03T08:29:53;3.95;;;2.30;;
13571;SDS011;6857;53.484;10.216;2022-08-03T08:32:19;5.70;;;2.30;;
13571;SDS011;6857;53.484;10.216;2022-08-03T08:34:44;3.45;;;2.33;;
13571;SDS011;6857;53.484;10.216;2022-08-03T08:37:10;2.75;;;1.98;;
13571;SDS011;6857;53.484;10.216;2022-08-03T08:39:35;3.25;;;2.38;;
13571;SDS011;6857;53.484;10.216;2022-08-03T08:42:01;4.05;;;2.28;;
13571;SDS011;6857;53.484;10.216;2022-08-03T08:44:27;3.17;;;2.15;;
13571;SDS011;6857;53.484;10.216;2022-08-03T08:46:54;4.10;;;2.10;;
13571;SDS011;6857;53.484;10.216;2022-08-03T08:49:26;5.10;;;2.08;;
13571;SDS011;6857;53.484;10.216;2022-08-03T08:51:53;2.85;;;1.88;;
13571;SDS011;6857;53.484;10.216;2022-08-03T08:54:21;3.60;;;1.83;;
13571;SDS011;6857;53.484;10.216;2022-08-03T08:56:48;3.28;;;1.80;;
13571;SDS011;6857;53.484;10.216;2022-08-03T08:59:15;3.92;;;1.80;;
13571;SDS011;6857;53.484;10.216;2022-08-03T09:01:41;2.40;;;2.00;;
13571;SDS011;6857;53.484;10.216;2022-08-03T09:04:06;4.78;;;1.75;;
13571;SDS011;6857;53.484;10.216;2022-08-03T09:06:33;3.63;;;1.92;;
13571;SDS011;6857;53.484;10.216;2022-08-03T09:08:59;4.63;;;1.58;;
13571;SDS011;6857;53.484;10.216;2022-08-03T09:11:26;3.72;;;1.73;;
13571;SDS011;6857;53.484;10.216;2022-08-03T09:13:51;2.13;;;1.70;;
13571;SDS011;6857;53.484;10.216;2022-08-03T09:16:18;3.22;;;1.55;;
13571;SDS011;6857;53.484;10.216;2022-08-03T09:18:46;3.20;;;1.85;;
13571;SDS011;6857;53.484;10.216;2022-08-03T09:23:43;3.30;;;1.77;;
13571;SDS011;6857;53.484;10.216;2022-08-03T09:26:23;5.30;;;1.92;;
13571;SDS011;6857;53.484;10.216;2022-08-03T09:28:54;5.55;;;2.03;;
13571;SDS011;6857;53.484;10.216;2022-08-03T09:31:37;5.07;;;2.00;;
13571;SDS011;6857;53.484;10.216;2022-08-03T09:34:05;5.15;;;1.95;;
13571;SDS011;6857;53.484;10.216;2022-08-03T09:36:33;4.43;;;1.67;;
13571;SDS011;6857;53.484;10.216;2022-08-03T09:39:00;3.03;;;1.48;;
13571;SDS011;6857;53.484;10.216;2022-08-03T09:41:30;3.60;;;1.77;;
13571;SDS011;6857;53.484;10.216;2022-08-03T09:43:56;3.33;;;1.60;;
13571;SDS011;6857;53.484;10.216;2022-08-03T09:46:21;4.38;;;1.50;;
13571;SDS011;6857;53.484;10.216;2022-08-03T09:48:47;3.97;;;1.83;;
13571;SDS011;6857;53.484;10.216;2022-08-03T09:51:12;4.13;;;1.67;;
13571;SDS011;6857;53.484;10.216;2022-08-03T09:53:45;3.80;;;1.48;;
13571;SDS011;6857;53.484;10.216;2022-08-03T09:56:11;4.88;;;1.70;;
13571;SDS011;6857;53.484;10.216;2022-08-03T09:58:44;2.45;;;1.50;;
13571;SDS011;6857;53.484;10.216;2022-08-03T10:01:11;2.47;;;1.55;;
13571;SDS011;6857;53.484;10.216;2022-08-03T10:03:37;4.80;;;1.80;;
13571;SDS011;6857;53.484;10.216;2022-08-03T10:06:17;3.53;;;1.58;;
13571;SDS011;6857;53.484;10.216;2022-08-03T10:08:43;3.88;;;1.70;;
13571;SDS011;6857;53.484;10.216;2022-08-03T10:11:09;3.75;;;1.63;;
13571;SDS011;6857;53.484;10.216;2022-08-03T10:13:35;2.45;;;1.63;;
13571;SDS011;6857;53.484;10.216;2022-08-03T10:16:01;3.58;;;1.63;;
13571;SDS011;6857;53.484;10.216;2022-08-03T10:18:28;3.08;;;1.60;;
13571;SDS011;6857;53.484;10.216;2022-08-03T10:20:58;5.63;;;1.95;;
13571;SDS011;6857;53.484;10.216;2022-08-03T10:23:27;4.38;;;1.90;;
13571;SDS011;6857;53.484;10.216;2022-08-03T10:25:54;3.42;;;1.80;;
13571;SDS011;6857;53.484;10.216;2022-08-03T10:28:25;6.20;;;1.77;;
13571;SDS011;6857;53.484;10.216;2022-08-03T10:31:01;5.13;;;1.85;;
13571;SDS011;6857;53.484;10.216;2022-08-03T10:33:32;5.38;;;1.90;;
13571;SDS011;6857;53.484;10.216;2022-08-03T10:36:01;2.30;;;1.65;;
13571;SDS011;6857;53.484;10.216;2022-08-03T10:38:36;7.18;;;2.75;;
13571;SDS011;6857;53.484;10.216;2022-08-03T10:41:07;3.58;;;2.00;;
13571;SDS011;6857;53.484;10.216;2022-08-03T10:43:46;5.55;;;1.90;;
13571;SDS011;6857;53.484;10.216;2022-08-03T10:46:17;4.68;;;1.80;;
13571;SDS011;6857;53.484;10.216;2022-08-03T10:48:45;3.40;;;1.80;;
13571;SDS011;6857;53.484;10.216;2022-08-03T10:51:12;4.75;;;1.80;;
13571;SDS011;6857;53.484;10.216;2022-08-03T10:53:39;3.47;;;2.00;;
13571;SDS011;6857;53.484;10.216;2022-08-03T10:59:16;5.28;;;2.28;;
13571;SDS011;6857;53.484;10.216;2022-08-03T11:01:49;5.07;;;1.85;;
13571;SDS011;6857;53.484;10.216;2022-08-03T11:04:19;2.72;;;1.67;;
13571;SDS011;6857;53.484;10.216;2022-08-03T11:06:46;4.38;;;1.92;;
13571;SDS011;6857;53.484;10.216;2022-08-03T11:11:39;6.35;;;2.38;;
13571;SDS011;6857;53.484;10.216;2022-08-03T11:14:07;5.75;;;2.10;;
13571;SDS011;6857;53.484;10.216;2022-08-03T11:16:48;2.92;;;1.85;;
13571;SDS011;6857;53.484;10.216;2022-08-03T11:19:45;6.07;;;1.95;;
13571;SDS011;6857;53.484;10.216;2022-08-03T11:22:16;5.63;;;1.98;;
13571;SDS011;6857;53.484;10.216;2022-08-03T11:29:52;4.43;;;1.90;;
13571;SDS011;6857;53.484;10.216;2022-08-03T11:38:03;3.42;;;1.73;;
13571;SDS011;6857;53.484;10.216;2022-08-03T11:46:00;3.60;;;1.90;;
13571;SDS011;6857;53.484;10.216;2022-08-03T11:51:00;8.38;;;5.90;;
13571;SDS011;6857;53.484;10.216;2022-08-03T11:53:26;4.25;;;1.85;;
13571;SDS011;6857;53.484;10.216;2022-08-03T11:55:52;4.35;;;1.80;;
13571;SDS011;6857;53.484;10.216;2022-08-03T11:58:21;4.03;;;2.00;;
13571;SDS011;6857;53.484;10.216;2022-08-03T12:00:48;5.10;;;1.80;;
13571;SDS011;6857;53.484;10.216;2022-08-03T12:03:15;4.00;;;1.67;;
13571;SDS011;6857;53.484;10.216;2022-08-03T12:08:12;3.72;;;1.67;;
13571;SDS011;6857;53.484;10.216;2022-08-03T12:10:44;2.53;;;1.45;;
13571;SDS011;6857;53.484;10.216;2022-08-03T12:13:11;3.92;;;1.48;;
13571;SDS011;6857;53.484;10.216;2022-08-03T12:15:37;4.20;;;1.75;;
13571;SDS011;6857;53.484;10.216;2022-08-03T12:18:03;4.50;;;1.60;;
13571;SDS011;6857;53.484;10.216;2022-08-03T12:20:36;5.53;;;1.88;;
13571;SDS011;6857;53.484;10.216;2022-08-03T12:23:03;3.70;;;1.77;;
13571;SDS011;6857;53.484;10.216;2022-08-03T12:25:30;3.25;;;1.52;;
13571;SDS011;6857;53.484;10.216;2022-08-03T12:30:43;4.13;;;1.70;;
13571;SDS011;6857;53.484;10.216;2022-08-03T12:33:21;6.47;;;2.10;;
13571;SDS011;6857;53.484;10.216;2022-08-03T12:36:01;7.88;;;1.88;;
13571;SDS011;6857;53.484;10.216;2022-08-03T12:38:29;4.15;;;1.60;;
13571;SDS011;6857;53.484;10.216;2022-08-03T12:41:00;5.60;;;1.98;;
13571;SDS011;6857;53.484;10.216;2022-08-03T12:43:37;4.25;;;1.65;;
13571;SDS011;6857;53.484;10.216;2022-08-03T12:46:13;3.97;;;1.80;;
13571;SDS011;6857;53.484;10.216;2022-08-03T12:54:09;4.40;;;1.70;;
13571;SDS011;6857;53.484;10.216;2022-08-03T12:59:33;4.97;;;1.92;;
13571;SDS011;6857;53.484;10.216;2022-08-03T13:02:12;5.88;;;1.98;;
13571;SDS011;6857;53.484;10.216;2022-08-03T13:04:39;3.78;;;1.60;;
13571;SDS011;6857;53.484;10.216;2022-08-03T13:07:06;3.53;;;1.88;;
13571;SDS011;6857;53.484;10.216;2022-08-03T13:09:45;3.30;;;1.70;;
13571;SDS011;6857;53.484;10.216;2022-08-03T13:12:18;3.85;;;1.30;;
13571;SDS011;6857;53.484;10.216;2022-08-03T13:14:46;3.95;;;1.80;;
13571;SDS011;6857;53.484;10.216;2022-08-03T13:17:13;6.72;;;1.60;;
13571;SDS011;6857;53.484;10.216;2022-08-03T13:19:40;4.28;;;1.75;;
13571;SDS011;6857;53.484;10.216;2022-08-03T13:22:11;3.47;;;1.80;;
13571;SDS011;6857;53.484;10.216;2022-08-03T13:24:36;5.28;;;1.73;;
13571;SDS011;6857;53.484;10.216;2022-08-03T13:27:02;6.50;;;1.70;;
13571;SDS011;6857;53.484;10.216;2022-08-03T13:29:30;3.63;;;1.67;;
13571;SDS011;6857;53.484;10.216;2022-08-03T13:31:56;4.78;;;1.73;;
13571;SDS011;6857;53.484;10.216;2022-08-03T13:34:24;4.32;;;1.67;;
13571;SDS011;6857;53.484;10.216;2022-08-03T13:36:50;3.30;;;1.58;;
13571;SDS011;6857;53.484;10.216;2022-08-03T13:39:16;4.28;;;1.48;;
13571;SDS011;6857;53.484;10.216;2022-08-03T13:41:43;4.55;;;1.70;;
13571;SDS011;6857;53.484;10.216;2022-08-03T13:44:09;4.05;;;2.00;;
13571;SDS011;6857;53.484;10.216;2022-08-03T13:46:35;4.97;;;2.10;;
13571;SDS011;6857;53.484;10.216;2022-08-03T13:49:00;6.20;;;2.00;;
13571;SDS011;6857;53.484;10.216;2022-08-03T13:51:26;3.97;;;1.90;;
13571;SDS011;6857;53.484;10.216;2022-08-03T13:53:51;5.40;;;2.05;;
13571;SDS011;6857;53.484;10.216;2022-08-03T13:56:17;6.95;;;1.80;;
13571;SDS011;6857;53.484;10.216;2022-08-03T13:58:42;3.58;;;1.90;;
13571;SDS011;6857;53.484;10.216;2022-08-03T14:01:08;8.05;;;1.65;;
13571;SDS011;6857;53.484;10.216;2022-08-03T14:03:33;3.38;;;1.70;;
13571;SDS011;6857;53.484;10.216;2022-08-03T14:05:59;4.75;;;1.60;;
13571;SDS011;6857;53.484;10.216;2022-08-03T14:08:24;3.17;;;1.90;;
13571;SDS011;6857;53.484;10.216;2022-08-03T14:10:50;3.65;;;2.03;;
13571;SDS011;6857;53.484;10.216;2022-08-03T14:13:15;3.13;;;2.05;;
13571;SDS011;6857;53.484;10.216;2022-08-03T14:15:41;3.55;;;1.63;;
13571;SDS011;6857;53.484;10.216;2022-08-03T14:18:07;3.95;;;1.75;;
13571;SDS011;6857;53.484;10.216;2022-08-03T14:20:33;3.38;;;1.75;;
13571;SDS011;6857;53.484;10.216;2022-08-03T14:23:00;3.05;;;2.00;;
13571;SDS011;6857;53.484;10.216;2022-08-03T14:25:25;3.38;;;1.50;;
13571;SDS011;6857;53.484;10.216;2022-08-03T14:27:51;4.95;;;2.00;;
13571;SDS011;6857;53.484;10.216;2022-08-03T14:30:16;5.97;;;1.83;;
13571;SDS011;6857;53.484;10.216;2022-08-03T14:32:42;2.55;;;1.45;;
13571;SDS011;6857;53.484;10.216;2022-08-03T14:35:08;4.35;;;1.70;;
13571;SDS011;6857;53.484;10.216;2022-08-03T14:37:34;3.38;;;2.05;;
13571;SDS011;6857;53.484;10.216;2022-08-03T14:40:00;4.80;;;2.08;;
13571;SDS011;6857;53.484;10.216;2022-08-03T14:42:26;3.33;;;1.67;;
13571;SDS011;6857;53.484;10.216;2022-08-03T14:44:52;4.43;;;1.77;;
13571;SDS011;6857;53.484;10.216;2022-08-03T14:47:17;3.38;;;1.63;;
13571;SDS011;6857;53.484;10.216;2022-08-03T14:49:43;2.85;;;1.48;;
13571;SDS011;6857;53.484;10.216;2022-08-03T14:52:08;3.45;;;1.52;;
13571;SDS011;6857;53.484;10.216;2022-08-03T14:54:34;3.50;;;1.52;;
13571;SDS011;6857;53.484;10.216;2022-08-03T14:56:59;4.20;;;1.77;;
13571;SDS011;6857;53.484;10.216;2022-08-03T14:59:25;4.90;;;1.65;;
13571;SDS011;6857;53.484;10.216;2022-08-03T15:01:51;4.25;;;2.03;;
13571;SDS011;6857;53.484;10.216;2022-08-03T15:04:17;5.07;;;2.10;;
13571;SDS011;6857;53.484;10.216;2022-08-03T15:06:43;4.50;;;1.63;;
13571;SDS011;6857;53.484;10.216;2022-08-03T15:09:08;7.03;;;2.05;;
13571;SDS011;6857;53.484;10.216;2022-08-03T15:11:34;4.07;;;1.75;;
13571;SDS011;6857;53.484;10.216;2022-08-03T15:14:00;4.00;;;1.70;;
13571;SDS011;6857;53.484;10.216;2022-08-03T15:16:26;4.20;;;1.92;;
13571;SDS011;6857;53.484;10.216;2022-08-03T15:18:51;4.93;;;1.80;;
13571;SDS011;6857;53.484;10.216;2022-08-03T15:21:17;4.70;;;2.65;;
13571;SDS011;6857;53.484;10.216;2022-08-03T15:23:42;5.38;;;2.00;;
13571;SDS011;6857;53.484;10.216;2022-08-03T15:26:08;2.72;;;1.58;;
13571;SDS011;6857;53.484;10.216;2022-08-03T15:28:33;5.22;;;1.83;;
13571;SDS011;6857;53.484;10.216;2022-08-03T15:30:59;3.47;;;1.45;;
13571;SDS011;6857;53.484;10.216;2022-08-03T15:33:25;6.30;;;2.05;;
13571;SDS011;6857;53.484;10.216;2022-08-03T15:35:51;3.00;;;1.70;;
13571;SDS011;6857;53.484;10.216;2022-08-03T15:38:17;7.05;;;2.30;;
13571;SDS011;6857;53.484;10.216;2022-08-03T15:40:43;5.55;;;1.85;;
13571;SDS011;6857;53.484;10.216;2022-08-03T15:43:09;4.55;;;1.92;;